KDYB

Summerville Airport

Summerville, South Carolina, USA
METAR KDYB 180655Z AUTO 19003KT 10SM CLR 15/14 A3010 RMK AO1
Observed Flight Rules
Feb-18 @ 06:55 UTC (20 minutes ago) Visual Flight Rules
Wind Visibility Clouds
190° at 3 knots 10 miles
  • Clear skies
Temperatures Readings
Current 15°C / 59°F
Dewpoint 14°C / 57°F
Humidity 94%
Altimeter 30.1" Hg
Pressure 1019 hPa
Elevation 18
METAR KDYB 180655Z AUTO 19003KT 10SM CLR 15/14 A3010 RMK AO1
Observed Flight Rules
Feb-18 @ 06:55 UTC
(20 minutes ago)
VFR
Wind Visibility
190° at 3 knots 10 miles
Clouds
  • Clear skies
Temperature Dewpoint
15°C / 59°F 14°C / 57°F
Humidity Altimeter Pressure
94% 30.1" Hg 1019 hPa